sensor_id;sensor_type;location;lat;lon;timestamp;P1;durP1;ratioP1;P2;durP2;ratioP2
16033;SDS011;8121;51.418;6.998;2024-02-15T00:03:52;2.47;;;2.27;;
16033;SDS011;8121;51.418;6.998;2024-02-15T00:08:54;2.80;;;2.60;;
16033;SDS011;8121;51.418;6.998;2024-02-15T00:13:55;5.00;;;3.07;;
16033;SDS011;8121;51.418;6.998;2024-02-15T00:18:59;9.03;;;2.67;;
16033;SDS011;8121;51.418;6.998;2024-02-15T00:24:00;3.20;;;2.47;;
16033;SDS011;8121;51.418;6.998;2024-02-15T00:29:02;7.50;;;3.20;;
16033;SDS011;8121;51.418;6.998;2024-02-15T00:34:05;3.83;;;2.93;;
16033;SDS011;8121;51.418;6.998;2024-02-15T00:39:06;2.70;;;2.43;;
16033;SDS011;8121;51.418;6.998;2024-02-15T00:44:08;8.63;;;3.30;;
16033;SDS011;8121;51.418;6.998;2024-02-15T00:49:11;10.63;;;3.70;;
16033;SDS011;8121;51.418;6.998;2024-02-15T00:54:13;7.33;;;3.03;;
16033;SDS011;8121;51.418;6.998;2024-02-15T00:59:14;4.10;;;2.60;;
16033;SDS011;8121;51.418;6.998;2024-02-15T01:04:17;7.60;;;3.67;;
16033;SDS011;8121;51.418;6.998;2024-02-15T01:09:19;7.90;;;3.93;;
16033;SDS011;8121;51.418;6.998;2024-02-15T01:14:20;2.90;;;2.40;;
16033;SDS011;8121;51.418;6.998;2024-02-15T01:19:23;5.67;;;3.30;;
16033;SDS011;8121;51.418;6.998;2024-02-15T01:24:25;4.57;;;3.50;;
16033;SDS011;8121;51.418;6.998;2024-02-15T01:29:26;6.23;;;3.93;;
16033;SDS011;8121;51.418;6.998;2024-02-15T01:34:30;7.87;;;3.23;;
16033;SDS011;8121;51.418;6.998;2024-02-15T01:39:31;2.60;;;2.40;;
16033;SDS011;8121;51.418;6.998;2024-02-15T01:44:33;6.80;;;3.93;;
16033;SDS011;8121;51.418;6.998;2024-02-15T01:49:35;14.20;;;5.00;;
16033;SDS011;8121;51.418;6.998;2024-02-15T01:54:37;5.20;;;3.60;;
16033;SDS011;8121;51.418;6.998;2024-02-15T01:59:38;3.57;;;3.23;;
16033;SDS011;8121;51.418;6.998;2024-02-15T02:04:41;3.07;;;2.77;;
16033;SDS011;8121;51.418;6.998;2024-02-15T02:09:43;6.37;;;3.73;;
16033;SDS011;8121;51.418;6.998;2024-02-15T02:14:45;6.53;;;3.47;;
16033;SDS011;8121;51.418;6.998;2024-02-15T02:19:48;4.27;;;2.50;;
16033;SDS011;8121;51.418;6.998;2024-02-15T02:25:01;8.73;;;2.67;;
16033;SDS011;8121;51.418;6.998;2024-02-15T02:30:12;2.10;;;2.00;;
16033;SDS011;8121;51.418;6.998;2024-02-15T02:35:15;6.53;;;2.93;;
16033;SDS011;8121;51.418;6.998;2024-02-15T02:40:18;6.20;;;3.20;;
16033;SDS011;8121;51.418;6.998;2024-02-15T02:45:20;4.80;;;2.40;;
16033;SDS011;8121;51.418;6.998;2024-02-15T02:50:22;13.13;;;3.60;;
16033;SDS011;8121;51.418;6.998;2024-02-15T02:55:26;3.00;;;2.77;;
16033;SDS011;8121;51.418;6.998;2024-02-15T03:00:28;9.30;;;3.30;;
16033;SDS011;8121;51.418;6.998;2024-02-15T03:05:29;10.93;;;3.30;;
16033;SDS011;8121;51.418;6.998;2024-02-15T03:10:32;5.00;;;2.47;;
16033;SDS011;8121;51.418;6.998;2024-02-15T03:15:33;2.30;;;2.20;;
16033;SDS011;8121;51.418;6.998;2024-02-15T03:20:36;3.43;;;2.40;;
16033;SDS011;8121;51.418;6.998;2024-02-15T03:25:40;2.40;;;2.13;;
16033;SDS011;8121;51.418;6.998;2024-02-15T03:30:41;2.57;;;2.00;;
16033;SDS011;8121;51.418;6.998;2024-02-15T03:35:44;8.67;;;3.57;;
16033;SDS011;8121;51.418;6.998;2024-02-15T03:40:47;8.00;;;2.60;;
16033;SDS011;8121;51.418;6.998;2024-02-15T03:45:49;7.07;;;2.67;;
16033;SDS011;8121;51.418;6.998;2024-02-15T03:50:51;2.67;;;2.40;;
16033;SDS011;8121;51.418;6.998;2024-02-15T03:55:54;2.73;;;1.60;;
16033;SDS011;8121;51.418;6.998;2024-02-15T04:00:56;4.03;;;1.77;;
16033;SDS011;8121;51.418;6.998;2024-02-15T04:05:57;11.80;;;2.67;;
16033;SDS011;8121;51.418;6.998;2024-02-15T04:11:01;1.87;;;1.77;;
16033;SDS011;8121;51.418;6.998;2024-02-15T04:16:04;2.10;;;1.93;;
16033;SDS011;8121;51.418;6.998;2024-02-15T04:21:06;4.30;;;2.97;;
16033;SDS011;8121;51.418;6.998;2024-02-15T04:26:09;4.60;;;2.73;;
16033;SDS011;8121;51.418;6.998;2024-02-15T04:31:13;3.90;;;2.00;;
16033;SDS011;8121;51.418;6.998;2024-02-15T04:36:15;3.10;;;2.20;;
16033;SDS011;8121;51.418;6.998;2024-02-15T04:41:24;2.57;;;2.37;;
16033;SDS011;8121;51.418;6.998;2024-02-15T04:46:25;4.10;;;2.53;;
16033;SDS011;8121;51.418;6.998;2024-02-15T04:51:27;2.47;;;2.20;;
16033;SDS011;8121;51.418;6.998;2024-02-15T04:56:30;3.47;;;1.90;;
16033;SDS011;8121;51.418;6.998;2024-02-15T05:01:33;2.33;;;2.10;;
16033;SDS011;8121;51.418;6.998;2024-02-15T05:06:34;3.23;;;2.13;;
16033;SDS011;8121;51.418;6.998;2024-02-15T05:11:37;3.47;;;1.57;;
16033;SDS011;8121;51.418;6.998;2024-02-15T05:16:41;1.30;;;1.20;;
16033;SDS011;8121;51.418;6.998;2024-02-15T05:21:43;3.87;;;1.73;;
16033;SDS011;8121;51.418;6.998;2024-02-15T05:26:47;2.70;;;2.40;;
16033;SDS011;8121;51.418;6.998;2024-02-15T05:31:48;7.30;;;2.27;;
16033;SDS011;8121;51.418;6.998;2024-02-15T05:36:51;2.90;;;1.50;;
16033;SDS011;8121;51.418;6.998;2024-02-15T05:41:54;2.30;;;1.90;;
16033;SDS011;8121;51.418;6.998;2024-02-15T05:47:01;4.60;;;1.60;;
16033;SDS011;8121;51.418;6.998;2024-02-15T05:52:02;7.90;;;3.00;;
16033;SDS011;8121;51.418;6.998;2024-02-15T05:57:06;3.93;;;2.30;;
16033;SDS011;8121;51.418;6.998;2024-02-15T06:02:07;2.70;;;2.30;;
16033;SDS011;8121;51.418;6.998;2024-02-15T06:07:09;1.83;;;1.73;;
16033;SDS011;8121;51.418;6.998;2024-02-15T06:12:12;5.60;;;3.37;;
16033;SDS011;8121;51.418;6.998;2024-02-15T06:17:13;3.03;;;1.60;;
16033;SDS011;8121;51.418;6.998;2024-02-15T06:22:15;2.90;;;1.60;;
16033;SDS011;8121;51.418;6.998;2024-02-15T06:27:17;1.93;;;1.83;;
16033;SDS011;8121;51.418;6.998;2024-02-15T06:32:19;3.20;;;1.87;;
16033;SDS011;8121;51.418;6.998;2024-02-15T06:37:38;4.40;;;2.00;;
16033;SDS011;8121;51.418;6.998;2024-02-15T06:42:59;2.03;;;1.53;;
16033;SDS011;8121;51.418;6.998;2024-02-15T06:48:01;3.10;;;2.37;;
16033;SDS011;8121;51.418;6.998;2024-02-15T06:53:02;1.40;;;1.30;;
16033;SDS011;8121;51.418;6.998;2024-02-15T06:58:05;3.10;;;1.73;;
16033;SDS011;8121;51.418;6.998;2024-02-15T07:03:07;5.63;;;2.20;;
16033;SDS011;8121;51.418;6.998;2024-02-15T07:08:09;8.13;;;1.83;;
16033;SDS011;8121;51.418;6.998;2024-02-15T07:13:14;3.90;;;1.40;;
16033;SDS011;8121;51.418;6.998;2024-02-15T07:18:15;2.90;;;1.63;;
16033;SDS011;8121;51.418;6.998;2024-02-15T07:23:18;3.43;;;2.13;;
16033;SDS011;8121;51.418;6.998;2024-02-15T07:28:21;4.10;;;2.40;;
16033;SDS011;8121;51.418;6.998;2024-02-15T07:33:22;6.00;;;1.90;;
16033;SDS011;8121;51.418;6.998;2024-02-15T07:38:24;2.47;;;1.83;;
16033;SDS011;8121;51.418;6.998;2024-02-15T07:43:27;4.87;;;1.70;;
16033;SDS011;8121;51.418;6.998;2024-02-15T07:48:28;4.20;;;1.60;;
16033;SDS011;8121;51.418;6.998;2024-02-15T07:53:30;5.23;;;2.67;;
16033;SDS011;8121;51.418;6.998;2024-02-15T07:58:32;7.30;;;2.40;;
16033;SDS011;8121;51.418;6.998;2024-02-15T08:03:34;5.93;;;2.03;;
16033;SDS011;8121;51.418;6.998;2024-02-15T08:08:36;12.30;;;2.10;;
16033;SDS011;8121;51.418;6.998;2024-02-15T08:13:39;4.10;;;1.60;;
16033;SDS011;8121;51.418;6.998;2024-02-15T08:18:40;1.63;;;1.00;;
16033;SDS011;8121;51.418;6.998;2024-02-15T08:23:41;2.17;;;1.50;;
16033;SDS011;8121;51.418;6.998;2024-02-15T08:28:44;1.60;;;1.27;;
16033;SDS011;8121;51.418;6.998;2024-02-15T08:33:46;2.60;;;1.80;;
16033;SDS011;8121;51.418;6.998;2024-02-15T08:38:47;2.10;;;1.40;;
16033;SDS011;8121;51.418;6.998;2024-02-15T08:43:51;7.03;;;1.63;;
16033;SDS011;8121;51.418;6.998;2024-02-15T08:48:53;1.20;;;1.10;;
16033;SDS011;8121;51.418;6.998;2024-02-15T08:53:54;2.63;;;1.53;;
16033;SDS011;8121;51.418;6.998;2024-02-15T08:58:57;4.87;;;1.43;;
16033;SDS011;8121;51.418;6.998;2024-02-15T09:03:59;1.10;;;1.00;;
16033;SDS011;8121;51.418;6.998;2024-02-15T09:09:01;3.73;;;1.23;;
16033;SDS011;8121;51.418;6.998;2024-02-15T09:14:04;1.00;;;1.00;;
16033;SDS011;8121;51.418;6.998;2024-02-15T09:19:05;3.00;;;1.13;;
16033;SDS011;8121;51.418;6.998;2024-02-15T09:24:07;4.27;;;1.10;;
16033;SDS011;8121;51.418;6.998;2024-02-15T09:29:10;3.20;;;1.03;;
16033;SDS011;8121;51.418;6.998;2024-02-15T09:34:12;4.47;;;1.50;;
16033;SDS011;8121;51.418;6.998;2024-02-15T09:39:13;4.60;;;1.10;;
16033;SDS011;8121;51.418;6.998;2024-02-15T09:44:16;2.60;;;0.93;;
16033;SDS011;8121;51.418;6.998;2024-02-15T09:49:18;2.10;;;0.83;;
16033;SDS011;8121;51.418;6.998;2024-02-15T09:54:20;3.23;;;1.07;;
16033;SDS011;8121;51.418;6.998;2024-02-15T09:59:24;1.27;;;0.93;;
16033;SDS011;8121;51.418;6.998;2024-02-15T10:04:26;4.10;;;1.60;;
16033;SDS011;8121;51.418;6.998;2024-02-15T10:09:28;5.10;;;1.03;;
16033;SDS011;8121;51.418;6.998;2024-02-15T10:14:32;2.30;;;1.07;;
16033;SDS011;8121;51.418;6.998;2024-02-15T10:19:34;4.17;;;1.30;;
16033;SDS011;8121;51.418;6.998;2024-02-15T10:24:35;5.40;;;0.90;;
16033;SDS011;8121;51.418;6.998;2024-02-15T10:29:40;4.93;;;0.70;;
16033;SDS011;8121;51.418;6.998;2024-02-15T10:34:45;1.73;;;1.10;;
16033;SDS011;8121;51.418;6.998;2024-02-15T10:39:46;9.07;;;1.10;;
16033;SDS011;8121;51.418;6.998;2024-02-15T10:44:56;1.00;;;0.90;;
16033;SDS011;8121;51.418;6.998;2024-02-15T10:49:58;1.87;;;0.90;;
16033;SDS011;8121;51.418;6.998;2024-02-15T10:55:01;2.63;;;0.93;;
16033;SDS011;8121;51.418;6.998;2024-02-15T11:00:07;3.23;;;0.87;;
16033;SDS011;8121;51.418;6.998;2024-02-15T11:05:11;1.63;;;1.10;;
16033;SDS011;8121;51.418;6.998;2024-02-15T11:10:14;2.47;;;1.13;;
16033;SDS011;8121;51.418;6.998;2024-02-15T11:20:49;1.30;;;1.00;;
16033;SDS011;8121;51.418;6.998;2024-02-15T11:25:51;1.90;;;0.97;;
16033;SDS011;8121;51.418;6.998;2024-02-15T11:30:54;3.27;;;1.10;;
16033;SDS011;8121;51.418;6.998;2024-02-15T11:36:03;2.30;;;1.13;;
16033;SDS011;8121;51.418;6.998;2024-02-15T11:41:06;2.60;;;1.20;;
16033;SDS011;8121;51.418;6.998;2024-02-15T11:46:11;2.43;;;1.27;;
16033;SDS011;8121;51.418;6.998;2024-02-15T11:51:24;2.33;;;1.23;;
16033;SDS011;8121;51.418;6.998;2024-02-15T11:56:26;2.50;;;1.10;;
16033;SDS011;8121;51.418;6.998;2024-02-15T12:01:29;1.67;;;0.80;;
16033;SDS011;8121;51.418;6.998;2024-02-15T12:06:50;3.60;;;0.83;;
16033;SDS011;8121;51.418;6.998;2024-02-15T12:12:17;1.90;;;0.93;;
16033;SDS011;8121;51.418;6.998;2024-02-15T12:17:38;1.87;;;0.87;;
16033;SDS011;8121;51.418;6.998;2024-02-15T12:22:57;2.00;;;1.20;;
16033;SDS011;8121;51.418;6.998;2024-02-15T12:28:00;3.63;;;1.30;;
16033;SDS011;8121;51.418;6.998;2024-02-15T12:33:12;1.93;;;1.30;;
16033;SDS011;8121;51.418;6.998;2024-02-15T12:38:20;2.13;;;1.30;;
16033;SDS011;8121;51.418;6.998;2024-02-15T12:43:21;1.33;;;1.07;;
16033;SDS011;8121;51.418;6.998;2024-02-15T12:48:24;8.40;;;2.90;;
16033;SDS011;8121;51.418;6.998;2024-02-15T12:53:26;3.20;;;1.40;;
16033;SDS011;8121;51.418;6.998;2024-02-15T12:58:28;1.20;;;0.97;;
16033;SDS011;8121;51.418;6.998;2024-02-15T13:03:32;2.40;;;1.10;;
16033;SDS011;8121;51.418;6.998;2024-02-15T13:08:34;1.50;;;0.97;;
16033;SDS011;8121;51.418;6.998;2024-02-15T13:13:36;2.20;;;1.27;;
16033;SDS011;8121;51.418;6.998;2024-02-15T13:18:39;2.20;;;1.00;;
16033;SDS011;8121;51.418;6.998;2024-02-15T13:23:41;2.27;;;1.20;;
16033;SDS011;8121;51.418;6.998;2024-02-15T13:28:43;1.10;;;0.73;;
16033;SDS011;8121;51.418;6.998;2024-02-15T13:33:46;2.73;;;1.10;;
16033;SDS011;8121;51.418;6.998;2024-02-15T13:38:48;2.20;;;1.00;;
16033;SDS011;8121;51.418;6.998;2024-02-15T13:43:51;1.30;;;1.00;;
16033;SDS011;8121;51.418;6.998;2024-02-15T13:48:54;1.00;;;0.90;;
16033;SDS011;8121;51.418;6.998;2024-02-15T13:53:58;2.40;;;0.70;;
16033;SDS011;8121;51.418;6.998;2024-02-15T13:58:59;2.70;;;2.20;;
16033;SDS011;8121;51.418;6.998;2024-02-15T14:04:03;3.33;;;1.37;;
16033;SDS011;8121;51.418;6.998;2024-02-15T14:09:05;2.07;;;1.10;;
16033;SDS011;8121;51.418;6.998;2024-02-15T14:14:07;2.87;;;1.33;;
16033;SDS011;8121;51.418;6.998;2024-02-15T14:19:10;3.63;;;1.23;;
16033;SDS011;8121;51.418;6.998;2024-02-15T14:24:12;4.33;;;1.00;;
16033;SDS011;8121;51.418;6.998;2024-02-15T14:29:16;1.50;;;1.40;;
16033;SDS011;8121;51.418;6.998;2024-02-15T14:34:22;1.73;;;0.80;;
16033;SDS011;8121;51.418;6.998;2024-02-15T14:39:25;1.50;;;1.10;;
16033;SDS011;8121;51.418;6.998;2024-02-15T14:44:26;1.20;;;1.10;;
16033;SDS011;8121;51.418;6.998;2024-02-15T14:49:29;2.13;;;1.07;;
16033;SDS011;8121;51.418;6.998;2024-02-15T14:54:31;1.10;;;0.77;;
16033;SDS011;8121;51.418;6.998;2024-02-15T14:59:36;3.90;;;1.03;;
16033;SDS011;8121;51.418;6.998;2024-02-15T15:04:48;4.20;;;0.90;;
16033;SDS011;8121;51.418;6.998;2024-02-15T15:10:15;1.40;;;1.13;;
16033;SDS011;8121;51.418;6.998;2024-02-15T15:15:34;1.00;;;0.90;;
16033;SDS011;8121;51.418;6.998;2024-02-15T15:20:38;1.20;;;0.80;;
16033;SDS011;8121;51.418;6.998;2024-02-15T15:25:43;2.70;;;1.13;;
16033;SDS011;8121;51.418;6.998;2024-02-15T15:30:46;8.60;;;1.57;;
16033;SDS011;8121;51.418;6.998;2024-02-15T15:35:53;3.87;;;1.07;;
16033;SDS011;8121;51.418;6.998;2024-02-15T15:40:54;6.07;;;1.30;;
16033;SDS011;8121;51.418;6.998;2024-02-15T15:46:32;3.53;;;1.00;;
16033;SDS011;8121;51.418;6.998;2024-02-15T15:52:09;3.23;;;1.20;;
16033;SDS011;8121;51.418;6.998;2024-02-15T15:57:11;1.07;;;0.70;;
16033;SDS011;8121;51.418;6.998;2024-02-15T16:02:13;1.20;;;1.10;;
16033;SDS011;8121;51.418;6.998;2024-02-15T16:07:19;2.43;;;0.90;;
16033;SDS011;8121;51.418;6.998;2024-02-15T16:12:20;1.80;;;1.10;;
16033;SDS011;8121;51.418;6.998;2024-02-15T16:17:22;3.73;;;1.50;;
16033;SDS011;8121;51.418;6.998;2024-02-15T16:22:26;1.60;;;1.00;;
16033;SDS011;8121;51.418;6.998;2024-02-15T16:27:28;3.07;;;1.20;;
16033;SDS011;8121;51.418;6.998;2024-02-15T16:32:30;1.00;;;0.70;;
16033;SDS011;8121;51.418;6.998;2024-02-15T16:37:33;7.93;;;1.00;;
16033;SDS011;8121;51.418;6.998;2024-02-15T16:42:34;1.10;;;0.70;;
16033;SDS011;8121;51.418;6.998;2024-02-15T16:47:37;5.43;;;1.10;;
16033;SDS011;8121;51.418;6.998;2024-02-15T16:52:40;2.17;;;1.00;;
16033;SDS011;8121;51.418;6.998;2024-02-15T16:57:41;0.80;;;0.80;;
16033;SDS011;8121;51.418;6.998;2024-02-15T17:02:44;0.70;;;0.70;;
16033;SDS011;8121;51.418;6.998;2024-02-15T17:07:47;1.53;;;1.00;;
16033;SDS011;8121;51.418;6.998;2024-02-15T17:12:49;2.40;;;0.80;;
16033;SDS011;8121;51.418;6.998;2024-02-15T17:17:51;4.03;;;1.20;;
16033;SDS011;8121;51.418;6.998;2024-02-15T17:22:54;5.43;;;0.90;;
16033;SDS011;8121;51.418;6.998;2024-02-15T17:27:57;0.90;;;0.80;;
16033;SDS011;8121;51.418;6.998;2024-02-15T17:32:59;0.80;;;0.60;;
16033;SDS011;8121;51.418;6.998;2024-02-15T17:38:02;0.80;;;0.77;;
16033;SDS011;8121;51.418;6.998;2024-02-15T17:43:04;2.50;;;1.00;;
16033;SDS011;8121;51.418;6.998;2024-02-15T17:48:07;3.13;;;1.10;;
16033;SDS011;8121;51.418;6.998;2024-02-15T17:53:11;3.93;;;1.20;;
16033;SDS011;8121;51.418;6.998;2024-02-15T17:58:12;4.43;;;0.87;;
16033;SDS011;8121;51.418;6.998;2024-02-15T18:03:14;1.07;;;0.97;;
16033;SDS011;8121;51.418;6.998;2024-02-15T18:08:17;1.70;;;0.90;;
16033;SDS011;8121;51.418;6.998;2024-02-15T18:13:19;5.33;;;1.20;;
16033;SDS011;8121;51.418;6.998;2024-02-15T18:18:21;0.90;;;0.90;;
16033;SDS011;8121;51.418;6.998;2024-02-15T18:23:27;3.67;;;1.10;;
16033;SDS011;8121;51.418;6.998;2024-02-15T18:28:28;1.00;;;0.90;;
16033;SDS011;8121;51.418;6.998;2024-02-15T18:33:30;2.70;;;0.80;;
16033;SDS011;8121;51.418;6.998;2024-02-15T18:38:34;2.33;;;1.60;;
16033;SDS011;8121;51.418;6.998;2024-02-15T18:43:38;3.23;;;0.87;;
16033;SDS011;8121;51.418;6.998;2024-02-15T18:48:40;5.73;;;1.13;;
16033;SDS011;8121;51.418;6.998;2024-02-15T18:53:43;1.20;;;0.93;;
16033;SDS011;8121;51.418;6.998;2024-02-15T18:58:44;0.77;;;0.77;;
16033;SDS011;8121;51.418;6.998;2024-02-15T19:03:46;1.13;;;0.80;;
16033;SDS011;8121;51.418;6.998;2024-02-15T19:08:49;1.13;;;1.03;;
16033;SDS011;8121;51.418;6.998;2024-02-15T19:13:53;1.17;;;0.70;;
16033;SDS011;8121;51.418;6.998;2024-02-15T19:18:55;4.57;;;1.07;;
16033;SDS011;8121;51.418;6.998;2024-02-15T19:24:01;1.00;;;0.90;;
16033;SDS011;8121;51.418;6.998;2024-02-15T19:29:02;0.90;;;0.80;;
16033;SDS011;8121;51.418;6.998;2024-02-15T19:34:06;1.00;;;0.80;;
16033;SDS011;8121;51.418;6.998;2024-02-15T19:39:09;1.23;;;0.97;;
16033;SDS011;8121;51.418;6.998;2024-02-15T19:44:11;0.90;;;0.63;;
16033;SDS011;8121;51.418;6.998;2024-02-15T19:49:14;3.60;;;0.90;;
16033;SDS011;8121;51.418;6.998;2024-02-15T19:54:17;1.10;;;0.90;;
16033;SDS011;8121;51.418;6.998;2024-02-15T19:59:19;1.23;;;0.80;;
16033;SDS011;8121;51.418;6.998;2024-02-15T20:04:20;2.70;;;1.37;;
16033;SDS011;8121;51.418;6.998;2024-02-15T20:09:23;1.70;;;0.97;;
16033;SDS011;8121;51.418;6.998;2024-02-15T20:14:27;2.73;;;1.20;;
16033;SDS011;8121;51.418;6.998;2024-02-15T20:19:30;1.10;;;1.00;;
16033;SDS011;8121;51.418;6.998;2024-02-15T20:24:33;1.73;;;0.70;;
16033;SDS011;8121;51.418;6.998;2024-02-15T20:29:37;2.17;;;0.70;;
16033;SDS011;8121;51.418;6.998;2024-02-15T20:34:39;2.70;;;0.80;;
16033;SDS011;8121;51.418;6.998;2024-02-15T20:39:42;0.90;;;0.70;;
16033;SDS011;8121;51.418;6.998;2024-02-15T20:44:45;1.10;;;0.90;;
16033;SDS011;8121;51.418;6.998;2024-02-15T20:49:46;2.80;;;0.87;;
16033;SDS011;8121;51.418;6.998;2024-02-15T20:54:49;1.10;;;1.00;;
16033;SDS011;8121;51.418;6.998;2024-02-15T20:59:51;1.80;;;1.00;;
16033;SDS011;8121;51.418;6.998;2024-02-15T21:04:53;7.33;;;1.20;;
16033;SDS011;8121;51.418;6.998;2024-02-15T21:09:56;1.10;;;0.97;;
16033;SDS011;8121;51.418;6.998;2024-02-15T21:14:58;2.03;;;1.13;;
16033;SDS011;8121;51.418;6.998;2024-02-15T21:20:00;0.90;;;0.90;;
16033;SDS011;8121;51.418;6.998;2024-02-15T21:25:03;2.60;;;0.70;;
16033;SDS011;8121;51.418;6.998;2024-02-15T21:30:05;1.97;;;1.00;;
16033;SDS011;8121;51.418;6.998;2024-02-15T21:35:08;1.13;;;0.80;;
16033;SDS011;8121;51.418;6.998;2024-02-15T21:40:11;4.43;;;1.13;;
16033;SDS011;8121;51.418;6.998;2024-02-15T21:45:13;2.20;;;1.07;;
16033;SDS011;8121;51.418;6.998;2024-02-15T21:50:15;7.60;;;0.90;;
16033;SDS011;8121;51.418;6.998;2024-02-15T21:55:18;1.10;;;0.87;;
16033;SDS011;8121;51.418;6.998;2024-02-15T22:00:19;8.23;;;1.07;;
16033;SDS011;8121;51.418;6.998;2024-02-15T22:05:21;0.97;;;0.80;;
16033;SDS011;8121;51.418;6.998;2024-02-15T22:10:24;1.30;;;1.00;;
16033;SDS011;8121;51.418;6.998;2024-02-15T22:15:26;0.80;;;0.80;;
16033;SDS011;8121;51.418;6.998;2024-02-15T22:20:28;6.33;;;1.10;;
16033;SDS011;8121;51.418;6.998;2024-02-15T22:25:31;1.73;;;0.90;;
16033;SDS011;8121;51.418;6.998;2024-02-15T22:30:33;3.53;;;1.00;;
16033;SDS011;8121;51.418;6.998;2024-02-15T22:35:35;2.53;;;0.97;;
16033;SDS011;8121;51.418;6.998;2024-02-15T22:40:39;1.30;;;1.10;;
16033;SDS011;8121;51.418;6.998;2024-02-15T22:45:42;1.40;;;1.07;;
16033;SDS011;8121;51.418;6.998;2024-02-15T22:50:46;2.03;;;1.07;;
16033;SDS011;8121;51.418;6.998;2024-02-15T22:55:49;1.00;;;1.00;;
16033;SDS011;8121;51.418;6.998;2024-02-15T23:00:51;1.90;;;1.40;;
16033;SDS011;8121;51.418;6.998;2024-02-15T23:05:53;1.13;;;0.80;;
16033;SDS011;8121;51.418;6.998;2024-02-15T23:10:55;4.33;;;1.40;;
16033;SDS011;8121;51.418;6.998;2024-02-15T23:15:57;3.13;;;1.10;;
16033;SDS011;8121;51.418;6.998;2024-02-15T23:20:59;1.30;;;0.93;;
16033;SDS011;8121;51.418;6.998;2024-02-15T23:26:02;1.47;;;1.00;;
16033;SDS011;8121;51.418;6.998;2024-02-15T23:31:04;1.93;;;0.93;;
16033;SDS011;8121;51.418;6.998;2024-02-15T23:36:06;7.30;;;1.33;;
16033;SDS011;8121;51.418;6.998;2024-02-15T23:41:27;3.23;;;1.20;;
16033;SDS011;8121;51.418;6.998;2024-02-15T23:46:28;4.00;;;1.10;;
16033;SDS011;8121;51.418;6.998;2024-02-15T23:51:30;1.10;;;1.00;;
16033;SDS011;8121;51.418;6.998;2024-02-15T23:56:33;1.67;;;1.03;;
